Jordans Store, Texas
Current Conditions -  °F | °C
As of 12:55 AM on Thursday 23 Oct 2014 (Local Time) from KOCH Reporting Station
Clear Clear  
Wind Chill: 61°   Ceiling: Unl
Heat Index: 61°   Visibility: 10mi
Dew Point: 52°   Wind: 5mph
Humidity: 72%   Direction: 90°E
Pressure: 30.12"   Gusts: NA
Location:  31.7022°N, 93.9592°W
Report Text: KOCH 230555Z AUTO 09004KT 10SM CLR 16/11 A3012 RMK AO1 10180 20130 402600120 57007
Loading
Personal Weather Stations






























Interactive Weather Map New forecast layout! Learn more

10-Day Weather Forecast

Advertisements
Track Severe Weather on mobile